sensor_id;sensor_type;location;lat;lon;timestamp;P1;durP1;ratioP1;P2;durP2;ratioP2
48871;SDS011;36154;51.674;7.824;2022-12-18T00:01:46;1.30;;;1.30;;
48871;SDS011;36154;51.674;7.824;2022-12-18T00:04:21;1.40;;;1.40;;
48871;SDS011;36154;51.674;7.824;2022-12-18T00:06:47;1.58;;;1.48;;
48871;SDS011;36154;51.674;7.824;2022-12-18T00:09:13;1.52;;;1.42;;
48871;SDS011;36154;51.674;7.824;2022-12-18T00:11:39;1.80;;;1.70;;
48871;SDS011;36154;51.674;7.824;2022-12-18T00:14:04;1.65;;;1.55;;
48871;SDS011;36154;51.674;7.824;2022-12-18T00:16:30;1.40;;;1.40;;
48871;SDS011;36154;51.674;7.824;2022-12-18T00:18:57;1.58;;;1.48;;
48871;SDS011;36154;51.674;7.824;2022-12-18T00:21:24;1.45;;;1.35;;
48871;SDS011;36154;51.674;7.824;2022-12-18T00:23:49;1.70;;;1.60;;
48871;SDS011;36154;51.674;7.824;2022-12-18T00:26:16;1.33;;;1.33;;
48871;SDS011;36154;51.674;7.824;2022-12-18T00:28:43;1.10;;;1.10;;
48871;SDS011;36154;51.674;7.824;2022-12-18T00:31:10;1.45;;;1.40;;
48871;SDS011;36154;51.674;7.824;2022-12-18T00:33:37;1.83;;;1.73;;
48871;SDS011;36154;51.674;7.824;2022-12-18T00:36:04;1.48;;;1.38;;
48871;SDS011;36154;51.674;7.824;2022-12-18T00:38:35;2.15;;;2.00;;
48871;SDS011;36154;51.674;7.824;2022-12-18T00:41:01;2.10;;;1.92;;
48871;SDS011;36154;51.674;7.824;2022-12-18T00:43:26;2.85;;;1.85;;
48871;SDS011;36154;51.674;7.824;2022-12-18T00:45:52;2.03;;;1.92;;
48871;SDS011;36154;51.674;7.824;2022-12-18T00:48:17;2.30;;;2.10;;
48871;SDS011;36154;51.674;7.824;2022-12-18T00:50:43;2.72;;;2.50;;
48871;SDS011;36154;51.674;7.824;2022-12-18T00:53:08;4.07;;;3.20;;
48871;SDS011;36154;51.674;7.824;2022-12-18T00:55:34;4.18;;;2.88;;
48871;SDS011;36154;51.674;7.824;2022-12-18T00:57:59;4.60;;;3.00;;
48871;SDS011;36154;51.674;7.824;2022-12-18T01:00:24;3.92;;;3.00;;
48871;SDS011;36154;51.674;7.824;2022-12-18T01:02:50;6.95;;;3.13;;
48871;SDS011;36154;51.674;7.824;2022-12-18T01:05:15;4.13;;;2.75;;
48871;SDS011;36154;51.674;7.824;2022-12-18T01:07:40;2.97;;;2.60;;
48871;SDS011;36154;51.674;7.824;2022-12-18T01:10:06;2.90;;;2.70;;
48871;SDS011;36154;51.674;7.824;2022-12-18T01:12:33;2.78;;;2.58;;
48871;SDS011;36154;51.674;7.824;2022-12-18T01:14:58;2.60;;;2.50;;
48871;SDS011;36154;51.674;7.824;2022-12-18T01:17:23;3.83;;;3.13;;
48871;SDS011;36154;51.674;7.824;2022-12-18T01:19:49;3.30;;;3.00;;
48871;SDS011;36154;51.674;7.824;2022-12-18T01:22:14;3.28;;;2.75;;
48871;SDS011;36154;51.674;7.824;2022-12-18T01:24:40;3.15;;;2.85;;
48871;SDS011;36154;51.674;7.824;2022-12-18T01:27:05;3.22;;;3.03;;
48871;SDS011;36154;51.674;7.824;2022-12-18T01:29:31;3.42;;;3.05;;
48871;SDS011;36154;51.674;7.824;2022-12-18T01:31:56;3.42;;;3.17;;
48871;SDS011;36154;51.674;7.824;2022-12-18T01:34:22;2.90;;;2.70;;
48871;SDS011;36154;51.674;7.824;2022-12-18T01:36:48;3.00;;;2.80;;
48871;SDS011;36154;51.674;7.824;2022-12-18T01:39:14;3.13;;;2.97;;
48871;SDS011;36154;51.674;7.824;2022-12-18T01:41:40;4.72;;;3.10;;
48871;SDS011;36154;51.674;7.824;2022-12-18T01:50:17;3.00;;;2.80;;
48871;SDS011;36154;51.674;7.824;2022-12-18T01:52:46;3.15;;;2.95;;
48871;SDS011;36154;51.674;7.824;2022-12-18T01:55:15;3.47;;;3.20;;
48871;SDS011;36154;51.674;7.824;2022-12-18T01:57:42;3.35;;;3.15;;
48871;SDS011;36154;51.674;7.824;2022-12-18T02:00:13;4.22;;;3.28;;
48871;SDS011;36154;51.674;7.824;2022-12-18T02:02:41;3.75;;;3.33;;
48871;SDS011;36154;51.674;7.824;2022-12-18T02:05:07;3.47;;;3.28;;
48871;SDS011;36154;51.674;7.824;2022-12-18T02:10:08;3.70;;;3.47;;
48871;SDS011;36154;51.674;7.824;2022-12-18T02:12:55;3.60;;;2.50;;
48871;SDS011;36154;51.674;7.824;2022-12-18T02:18:11;3.20;;;3.00;;
48871;SDS011;36154;51.674;7.824;2022-12-18T02:20:53;3.97;;;3.20;;
48871;SDS011;36154;51.674;7.824;2022-12-18T02:29:04;3.40;;;3.20;;
48871;SDS011;36154;51.674;7.824;2022-12-18T02:31:42;3.47;;;2.92;;
48871;SDS011;36154;51.674;7.824;2022-12-18T02:34:11;3.47;;;3.17;;
48871;SDS011;36154;51.674;7.824;2022-12-18T02:36:39;3.60;;;3.30;;
48871;SDS011;36154;51.674;7.824;2022-12-18T02:39:09;3.47;;;3.03;;
48871;SDS011;36154;51.674;7.824;2022-12-18T02:41:37;2.97;;;2.75;;
48871;SDS011;36154;51.674;7.824;2022-12-18T02:44:07;3.78;;;3.47;;
48871;SDS011;36154;51.674;7.824;2022-12-18T02:46:35;3.35;;;3.15;;
48871;SDS011;36154;51.674;7.824;2022-12-18T02:49:06;3.20;;;3.00;;
48871;SDS011;36154;51.674;7.824;2022-12-18T02:51:44;3.80;;;3.53;;
48871;SDS011;36154;51.674;7.824;2022-12-18T02:54:26;3.70;;;3.40;;
48871;SDS011;36154;51.674;7.824;2022-12-18T02:57:14;3.70;;;3.40;;
48871;SDS011;36154;51.674;7.824;2022-12-18T02:59:49;3.97;;;3.53;;
48871;SDS011;36154;51.674;7.824;2022-12-18T03:02:25;3.33;;;3.13;;
48871;SDS011;36154;51.674;7.824;2022-12-18T03:07:46;3.78;;;3.55;;
48871;SDS011;36154;51.674;7.824;2022-12-18T03:10:16;3.13;;;2.92;;
48871;SDS011;36154;51.674;7.824;2022-12-18T03:12:51;3.22;;;3.03;;
48871;SDS011;36154;51.674;7.824;2022-12-18T03:15:24;3.35;;;3.15;;
48871;SDS011;36154;51.674;7.824;2022-12-18T03:17:57;3.78;;;3.58;;
48871;SDS011;36154;51.674;7.824;2022-12-18T03:20:28;3.08;;;2.92;;
48871;SDS011;36154;51.674;7.824;2022-12-18T03:22:57;3.03;;;2.85;;
48871;SDS011;36154;51.674;7.824;2022-12-18T03:25:29;3.50;;;3.30;;
48871;SDS011;36154;51.674;7.824;2022-12-18T03:27:56;3.15;;;2.95;;
48871;SDS011;36154;51.674;7.824;2022-12-18T03:30:25;3.30;;;3.10;;
48871;SDS011;36154;51.674;7.824;2022-12-18T03:32:58;3.47;;;3.28;;
48871;SDS011;36154;51.674;7.824;2022-12-18T03:35:30;3.65;;;3.45;;
48871;SDS011;36154;51.674;7.824;2022-12-18T03:37:59;3.40;;;3.10;;
48871;SDS011;36154;51.674;7.824;2022-12-18T03:40:35;3.60;;;3.40;;
48871;SDS011;36154;51.674;7.824;2022-12-18T03:43:31;3.35;;;3.15;;
48871;SDS011;36154;51.674;7.824;2022-12-18T03:46:15;3.22;;;3.05;;
48871;SDS011;36154;51.674;7.824;2022-12-18T03:48:51;3.50;;;3.20;;
48871;SDS011;36154;51.674;7.824;2022-12-18T03:51:26;3.30;;;3.10;;
48871;SDS011;36154;51.674;7.824;2022-12-18T03:53:59;3.70;;;3.40;;
48871;SDS011;36154;51.674;7.824;2022-12-18T03:56:31;3.40;;;3.20;;
48871;SDS011;36154;51.674;7.824;2022-12-18T04:01:30;3.35;;;3.13;;
48871;SDS011;36154;51.674;7.824;2022-12-18T04:03:59;3.70;;;3.50;;
48871;SDS011;36154;51.674;7.824;2022-12-18T04:06:26;2.90;;;2.72;;
48871;SDS011;36154;51.674;7.824;2022-12-18T04:08:53;3.03;;;2.83;;
48871;SDS011;36154;51.674;7.824;2022-12-18T04:11:19;3.25;;;3.05;;
48871;SDS011;36154;51.674;7.824;2022-12-18T04:13:44;3.40;;;3.20;;
48871;SDS011;36154;51.674;7.824;2022-12-18T04:16:09;3.20;;;3.00;;
48871;SDS011;36154;51.674;7.824;2022-12-18T04:18:35;3.47;;;3.28;;
48871;SDS011;36154;51.674;7.824;2022-12-18T04:21:00;3.20;;;3.00;;
48871;SDS011;36154;51.674;7.824;2022-12-18T04:23:26;3.08;;;2.97;;
48871;SDS011;36154;51.674;7.824;2022-12-18T04:25:53;3.45;;;3.25;;
48871;SDS011;36154;51.674;7.824;2022-12-18T04:28:18;3.45;;;3.25;;
48871;SDS011;36154;51.674;7.824;2022-12-18T04:30:43;3.10;;;2.90;;
48871;SDS011;36154;51.674;7.824;2022-12-18T04:33:10;3.17;;;3.03;;
48871;SDS011;36154;51.674;7.824;2022-12-18T04:35:36;3.15;;;3.00;;
48871;SDS011;36154;51.674;7.824;2022-12-18T04:38:02;3.35;;;3.15;;
48871;SDS011;36154;51.674;7.824;2022-12-18T04:40:27;3.20;;;3.00;;
48871;SDS011;36154;51.674;7.824;2022-12-18T04:42:52;3.28;;;3.08;;
48871;SDS011;36154;51.674;7.824;2022-12-18T04:45:17;2.85;;;2.75;;
48871;SDS011;36154;51.674;7.824;2022-12-18T04:47:43;3.10;;;2.90;;
48871;SDS011;36154;51.674;7.824;2022-12-18T04:50:08;3.50;;;3.30;;
48871;SDS011;36154;51.674;7.824;2022-12-18T04:52:34;3.25;;;3.05;;
48871;SDS011;36154;51.674;7.824;2022-12-18T04:55:00;2.80;;;2.70;;
48871;SDS011;36154;51.674;7.824;2022-12-18T04:57:25;3.10;;;2.90;;
48871;SDS011;36154;51.674;7.824;2022-12-18T04:59:51;3.30;;;3.10;;
48871;SDS011;36154;51.674;7.824;2022-12-18T05:02:16;2.78;;;2.67;;
48871;SDS011;36154;51.674;7.824;2022-12-18T05:04:41;3.10;;;2.85;;
48871;SDS011;36154;51.674;7.824;2022-12-18T05:07:07;3.13;;;2.92;;
48871;SDS011;36154;51.674;7.824;2022-12-18T05:09:32;3.15;;;2.95;;
48871;SDS011;36154;51.674;7.824;2022-12-18T05:11:57;3.20;;;3.00;;
48871;SDS011;36154;51.674;7.824;2022-12-18T05:14:22;3.13;;;3.00;;
48871;SDS011;36154;51.674;7.824;2022-12-18T05:16:48;2.90;;;2.70;;
48871;SDS011;36154;51.674;7.824;2022-12-18T05:19:13;2.80;;;2.70;;
48871;SDS011;36154;51.674;7.824;2022-12-18T05:21:38;2.58;;;2.47;;
48871;SDS011;36154;51.674;7.824;2022-12-18T05:24:04;2.67;;;2.50;;
48871;SDS011;36154;51.674;7.824;2022-12-18T05:26:29;2.90;;;2.78;;
48871;SDS011;36154;51.674;7.824;2022-12-18T05:28:54;2.88;;;2.67;;
48871;SDS011;36154;51.674;7.824;2022-12-18T05:31:20;2.85;;;2.75;;
48871;SDS011;36154;51.674;7.824;2022-12-18T05:33:45;2.63;;;2.53;;
48871;SDS011;36154;51.674;7.824;2022-12-18T05:36:10;2.90;;;2.70;;
48871;SDS011;36154;51.674;7.824;2022-12-18T05:38:37;2.85;;;2.75;;
48871;SDS011;36154;51.674;7.824;2022-12-18T05:41:04;2.97;;;2.83;;
48871;SDS011;36154;51.674;7.824;2022-12-18T05:43:30;2.58;;;2.47;;
48871;SDS011;36154;51.674;7.824;2022-12-18T05:45:56;2.47;;;2.38;;
48871;SDS011;36154;51.674;7.824;2022-12-18T05:48:22;2.70;;;2.60;;
48871;SDS011;36154;51.674;7.824;2022-12-18T05:50:48;2.97;;;2.78;;
48871;SDS011;36154;51.674;7.824;2022-12-18T05:53:16;2.75;;;2.60;;
48871;SDS011;36154;51.674;7.824;2022-12-18T05:55:44;2.63;;;2.53;;
48871;SDS011;36154;51.674;7.824;2022-12-18T05:58:10;2.58;;;2.42;;
48871;SDS011;36154;51.674;7.824;2022-12-18T06:00:37;2.50;;;2.40;;
48871;SDS011;36154;51.674;7.824;2022-12-18T06:03:05;2.78;;;2.67;;
48871;SDS011;36154;51.674;7.824;2022-12-18T06:05:34;2.38;;;2.28;;
48871;SDS011;36154;51.674;7.824;2022-12-18T06:08:02;2.40;;;2.30;;
48871;SDS011;36154;51.674;7.824;2022-12-18T06:10:27;2.60;;;2.50;;
48871;SDS011;36154;51.674;7.824;2022-12-18T06:12:55;2.42;;;2.33;;
48871;SDS011;36154;51.674;7.824;2022-12-18T06:15:20;2.45;;;2.35;;
48871;SDS011;36154;51.674;7.824;2022-12-18T06:17:46;2.67;;;2.50;;
48871;SDS011;36154;51.674;7.824;2022-12-18T06:20:11;2.58;;;2.47;;
48871;SDS011;36154;51.674;7.824;2022-12-18T06:22:36;2.50;;;2.40;;
48871;SDS011;36154;51.674;7.824;2022-12-18T06:25:02;2.45;;;2.35;;
48871;SDS011;36154;51.674;7.824;2022-12-18T06:27:27;2.30;;;2.20;;
48871;SDS011;36154;51.674;7.824;2022-12-18T06:29:52;2.38;;;2.17;;
48871;SDS011;36154;51.674;7.824;2022-12-18T06:32:18;2.35;;;2.20;;
48871;SDS011;36154;51.674;7.824;2022-12-18T06:34:43;2.38;;;2.28;;
48871;SDS011;36154;51.674;7.824;2022-12-18T06:37:08;2.53;;;2.35;;
48871;SDS011;36154;51.674;7.824;2022-12-18T06:39:34;2.30;;;2.20;;
48871;SDS011;36154;51.674;7.824;2022-12-18T06:41:59;2.72;;;2.63;;
48871;SDS011;36154;51.674;7.824;2022-12-18T06:44:24;2.40;;;2.30;;
48871;SDS011;36154;51.674;7.824;2022-12-18T06:46:49;2.05;;;1.95;;
48871;SDS011;36154;51.674;7.824;2022-12-18T06:49:15;2.38;;;2.17;;
48871;SDS011;36154;51.674;7.824;2022-12-18T06:51:41;2.88;;;2.22;;
48871;SDS011;36154;51.674;7.824;2022-12-18T06:54:07;2.47;;;2.38;;
48871;SDS011;36154;51.674;7.824;2022-12-18T06:56:33;2.55;;;2.45;;
48871;SDS011;36154;51.674;7.824;2022-12-18T06:58:59;2.30;;;2.20;;
48871;SDS011;36154;51.674;7.824;2022-12-18T07:01:24;2.22;;;2.13;;
48871;SDS011;36154;51.674;7.824;2022-12-18T07:03:53;2.25;;;2.15;;
48871;SDS011;36154;51.674;7.824;2022-12-18T07:06:21;2.22;;;2.13;;
48871;SDS011;36154;51.674;7.824;2022-12-18T07:08:48;2.03;;;1.92;;
48871;SDS011;36154;51.674;7.824;2022-12-18T07:11:14;2.50;;;2.40;;
48871;SDS011;36154;51.674;7.824;2022-12-18T07:13:41;2.38;;;2.28;;
48871;SDS011;36154;51.674;7.824;2022-12-18T07:16:08;2.05;;;1.95;;
48871;SDS011;36154;51.674;7.824;2022-12-18T07:18:35;2.20;;;2.10;;
48871;SDS011;36154;51.674;7.824;2022-12-18T07:21:08;2.20;;;2.10;;
48871;SDS011;36154;51.674;7.824;2022-12-18T07:23:35;2.30;;;2.20;;
48871;SDS011;36154;51.674;7.824;2022-12-18T07:26:11;1.80;;;1.70;;
48871;SDS011;36154;51.674;7.824;2022-12-18T07:28:38;2.17;;;2.08;;
48871;SDS011;36154;51.674;7.824;2022-12-18T07:31:08;2.35;;;2.25;;
48871;SDS011;36154;51.674;7.824;2022-12-18T07:33:37;2.22;;;2.13;;
48871;SDS011;36154;51.674;7.824;2022-12-18T07:36:04;2.22;;;2.13;;
48871;SDS011;36154;51.674;7.824;2022-12-18T07:38:31;2.13;;;2.03;;
48871;SDS011;36154;51.674;7.824;2022-12-18T07:41:04;2.08;;;1.88;;
48871;SDS011;36154;51.674;7.824;2022-12-18T07:45:56;2.20;;;2.10;;
48871;SDS011;36154;51.674;7.824;2022-12-18T07:48:22;1.92;;;1.83;;
48871;SDS011;36154;51.674;7.824;2022-12-18T07:50:47;2.30;;;2.20;;
48871;SDS011;36154;51.674;7.824;2022-12-18T07:53:13;2.17;;;2.08;;
48871;SDS011;36154;51.674;7.824;2022-12-18T07:55:39;2.08;;;1.98;;
48871;SDS011;36154;51.674;7.824;2022-12-18T07:58:06;2.15;;;2.05;;
48871;SDS011;36154;51.674;7.824;2022-12-18T08:00:32;2.10;;;2.00;;
48871;SDS011;36154;51.674;7.824;2022-12-18T08:02:57;1.90;;;1.80;;
48871;SDS011;36154;51.674;7.824;2022-12-18T08:05:22;2.17;;;2.08;;
48871;SDS011;36154;51.674;7.824;2022-12-18T08:07:48;1.80;;;1.70;;
48871;SDS011;36154;51.674;7.824;2022-12-18T08:10:14;2.05;;;1.95;;
48871;SDS011;36154;51.674;7.824;2022-12-18T08:12:41;1.90;;;1.80;;
48871;SDS011;36154;51.674;7.824;2022-12-18T08:15:07;1.85;;;1.75;;
48871;SDS011;36154;51.674;7.824;2022-12-18T08:17:32;1.90;;;1.80;;
48871;SDS011;36154;51.674;7.824;2022-12-18T08:19:58;2.10;;;2.00;;
48871;SDS011;36154;51.674;7.824;2022-12-18T08:22:23;2.45;;;2.00;;
48871;SDS011;36154;51.674;7.824;2022-12-18T08:24:48;1.98;;;1.88;;
48871;SDS011;36154;51.674;7.824;2022-12-18T08:27:14;2.13;;;2.03;;
48871;SDS011;36154;51.674;7.824;2022-12-18T08:29:39;1.90;;;1.80;;
48871;SDS011;36154;51.674;7.824;2022-12-18T08:32:04;1.92;;;1.83;;
48871;SDS011;36154;51.674;7.824;2022-12-18T08:34:29;1.90;;;1.80;;
48871;SDS011;36154;51.674;7.824;2022-12-18T08:36:55;1.70;;;1.60;;
48871;SDS011;36154;51.674;7.824;2022-12-18T08:39:20;2.28;;;2.08;;
48871;SDS011;36154;51.674;7.824;2022-12-18T08:41:45;2.00;;;1.90;;
48871;SDS011;36154;51.674;7.824;2022-12-18T08:44:31;1.70;;;1.60;;
48871;SDS011;36154;51.674;7.824;2022-12-18T08:47:06;1.90;;;1.80;;
48871;SDS011;36154;51.674;7.824;2022-12-18T08:49:32;2.22;;;2.13;;
48871;SDS011;36154;51.674;7.824;2022-12-18T08:51:58;2.20;;;2.10;;
48871;SDS011;36154;51.674;7.824;2022-12-18T08:54:23;1.83;;;1.73;;
48871;SDS011;36154;51.674;7.824;2022-12-18T08:56:49;1.98;;;1.88;;
48871;SDS011;36154;51.674;7.824;2022-12-18T08:59:15;1.98;;;1.88;;
48871;SDS011;36154;51.674;7.824;2022-12-18T09:01:40;2.00;;;1.90;;
48871;SDS011;36154;51.674;7.824;2022-12-18T09:04:06;1.80;;;1.70;;
48871;SDS011;36154;51.674;7.824;2022-12-18T09:06:32;2.03;;;1.92;;
48871;SDS011;36154;51.674;7.824;2022-12-18T09:08:57;2.10;;;2.00;;
48871;SDS011;36154;51.674;7.824;2022-12-18T09:11:24;1.92;;;1.83;;
48871;SDS011;36154;51.674;7.824;2022-12-18T09:13:50;1.90;;;1.80;;
48871;SDS011;36154;51.674;7.824;2022-12-18T09:16:17;1.98;;;1.88;;
48871;SDS011;36154;51.674;7.824;2022-12-18T09:18:42;1.90;;;1.80;;
48871;SDS011;36154;51.674;7.824;2022-12-18T09:21:11;2.20;;;2.10;;
48871;SDS011;36154;51.674;7.824;2022-12-18T09:23:38;2.20;;;2.10;;
48871;SDS011;36154;51.674;7.824;2022-12-18T09:26:04;2.15;;;2.05;;
48871;SDS011;36154;51.674;7.824;2022-12-18T09:28:29;1.98;;;1.88;;
48871;SDS011;36154;51.674;7.824;2022-12-18T09:30:54;1.83;;;1.73;;
48871;SDS011;36154;51.674;7.824;2022-12-18T09:33:19;1.80;;;1.70;;
48871;SDS011;36154;51.674;7.824;2022-12-18T09:35:47;1.70;;;1.60;;
48871;SDS011;36154;51.674;7.824;2022-12-18T09:38:13;1.65;;;1.55;;
48871;SDS011;36154;51.674;7.824;2022-12-18T09:41:00;2.25;;;2.13;;
48871;SDS011;36154;51.674;7.824;2022-12-18T09:43:41;2.00;;;1.90;;
48871;SDS011;36154;51.674;7.824;2022-12-18T09:46:11;2.10;;;1.90;;
48871;SDS011;36154;51.674;7.824;2022-12-18T09:48:45;1.70;;;1.60;;
48871;SDS011;36154;51.674;7.824;2022-12-18T09:51:18;2.10;;;2.00;;
48871;SDS011;36154;51.674;7.824;2022-12-18T09:53:50;2.00;;;1.90;;
48871;SDS011;36154;51.674;7.824;2022-12-18T09:56:20;4.63;;;2.17;;
48871;SDS011;36154;51.674;7.824;2022-12-18T10:01:26;2.38;;;2.28;;
48871;SDS011;36154;51.674;7.824;2022-12-18T10:03:53;2.20;;;2.10;;
48871;SDS011;36154;51.674;7.824;2022-12-18T10:11:53;2.55;;;2.10;;
48871;SDS011;36154;51.674;7.824;2022-12-18T10:14:25;2.30;;;2.20;;
48871;SDS011;36154;51.674;7.824;2022-12-18T10:19:53;2.13;;;2.03;;
48871;SDS011;36154;51.674;7.824;2022-12-18T10:22:33;3.63;;;2.13;;
48871;SDS011;36154;51.674;7.824;2022-12-18T10:25:23;2.40;;;2.30;;
48871;SDS011;36154;51.674;7.824;2022-12-18T10:27:55;2.30;;;2.20;;
48871;SDS011;36154;51.674;7.824;2022-12-18T10:30:23;2.50;;;2.30;;
48871;SDS011;36154;51.674;7.824;2022-12-18T10:32:51;2.60;;;2.50;;
48871;SDS011;36154;51.674;7.824;2022-12-18T10:35:18;2.53;;;2.42;;
48871;SDS011;36154;51.674;7.824;2022-12-18T10:37:59;2.58;;;2.40;;
48871;SDS011;36154;51.674;7.824;2022-12-18T10:46:04;2.92;;;2.72;;
48871;SDS011;36154;51.674;7.824;2022-12-18T10:48:34;3.15;;;2.95;;
48871;SDS011;36154;51.674;7.824;2022-12-18T10:51:04;5.97;;;3.33;;
48871;SDS011;36154;51.674;7.824;2022-12-18T10:53:31;3.67;;;3.22;;
48871;SDS011;36154;51.674;7.824;2022-12-18T10:56:00;3.75;;;3.45;;
48871;SDS011;36154;51.674;7.824;2022-12-18T10:58:35;3.35;;;3.15;;
48871;SDS011;36154;51.674;7.824;2022-12-18T11:06:11;3.45;;;3.25;;
48871;SDS011;36154;51.674;7.824;2022-12-18T11:08:44;3.17;;;2.97;;
48871;SDS011;36154;51.674;7.824;2022-12-18T11:11:23;3.38;;;3.20;;
48871;SDS011;36154;51.674;7.824;2022-12-18T11:14:00;3.30;;;3.10;;
48871;SDS011;36154;51.674;7.824;2022-12-18T11:16:28;3.65;;;3.42;;
48871;SDS011;36154;51.674;7.824;2022-12-18T11:19:17;3.38;;;3.10;;
48871;SDS011;36154;51.674;7.824;2022-12-18T11:22:02;3.53;;;3.28;;
48871;SDS011;36154;51.674;7.824;2022-12-18T11:24:52;3.58;;;3.38;;
48871;SDS011;36154;51.674;7.824;2022-12-18T11:27:21;3.42;;;3.22;;
48871;SDS011;36154;51.674;7.824;2022-12-18T11:29:46;3.72;;;3.42;;
48871;SDS011;36154;51.674;7.824;2022-12-18T11:34:59;3.45;;;3.25;;
48871;SDS011;36154;51.674;7.824;2022-12-18T11:37:29;3.97;;;3.42;;
48871;SDS011;36154;51.674;7.824;2022-12-18T11:39:57;3.65;;;3.35;;
48871;SDS011;36154;51.674;7.824;2022-12-18T11:42:34;3.42;;;3.22;;
48871;SDS011;36154;51.674;7.824;2022-12-18T11:47:42;3.92;;;3.58;;
48871;SDS011;36154;51.674;7.824;2022-12-18T11:53:02;3.67;;;3.47;;
48871;SDS011;36154;51.674;7.824;2022-12-18T11:58:26;3.35;;;3.20;;
48871;SDS011;36154;51.674;7.824;2022-12-18T12:01:09;3.15;;;3.00;;
48871;SDS011;36154;51.674;7.824;2022-12-18T12:06:21;3.92;;;3.63;;
48871;SDS011;36154;51.674;7.824;2022-12-18T12:15:02;3.75;;;3.35;;
48871;SDS011;36154;51.674;7.824;2022-12-18T12:17:59;4.73;;;3.30;;
48871;SDS011;36154;51.674;7.824;2022-12-18T12:34:22;2.90;;;2.70;;
48871;SDS011;36154;51.674;7.824;2022-12-18T12:37:04;2.90;;;2.50;;
48871;SDS011;36154;51.674;7.824;2022-12-18T12:39:36;3.70;;;3.03;;
48871;SDS011;36154;51.674;7.824;2022-12-18T12:42:05;3.20;;;2.90;;
48871;SDS011;36154;51.674;7.824;2022-12-18T12:45:04;4.40;;;2.75;;
48871;SDS011;36154;51.674;7.824;2022-12-18T12:47:36;4.78;;;3.03;;
48871;SDS011;36154;51.674;7.824;2022-12-18T12:50:11;2.72;;;2.45;;
48871;SDS011;36154;51.674;7.824;2022-12-18T12:52:41;2.90;;;2.70;;
48871;SDS011;36154;51.674;7.824;2022-12-18T12:55:24;2.92;;;2.72;;
48871;SDS011;36154;51.674;7.824;2022-12-18T13:00:40;2.38;;;2.17;;
48871;SDS011;36154;51.674;7.824;2022-12-18T13:03:23;4.10;;;2.10;;
48871;SDS011;36154;51.674;7.824;2022-12-18T13:05:54;2.38;;;2.20;;
48871;SDS011;36154;51.674;7.824;2022-12-18T13:08:31;3.33;;;1.92;;
48871;SDS011;36154;51.674;7.824;2022-12-18T13:11:28;3.33;;;2.20;;
48871;SDS011;36154;51.674;7.824;2022-12-18T13:17:13;3.53;;;2.20;;
48871;SDS011;36154;51.674;7.824;2022-12-18T13:19:49;22.88;;;5.45;;
48871;SDS011;36154;51.674;7.824;2022-12-18T13:22:22;29.52;;;5.13;;
48871;SDS011;36154;51.674;7.824;2022-12-18T13:24:59;19.80;;;4.38;;
48871;SDS011;36154;51.674;7.824;2022-12-18T13:35:38;12.07;;;3.50;;
48871;SDS011;36154;51.674;7.824;2022-12-18T13:45:45;13.93;;;2.77;;
48871;SDS011;36154;51.674;7.824;2022-12-18T13:48:24;11.50;;;2.80;;
48871;SDS011;36154;51.674;7.824;2022-12-18T13:50:58;10.13;;;2.15;;
48871;SDS011;36154;51.674;7.824;2022-12-18T13:53:38;4.75;;;2.25;;
48871;SDS011;36154;51.674;7.824;2022-12-18T13:56:08;5.05;;;2.10;;
48871;SDS011;36154;51.674;7.824;2022-12-18T13:58:33;6.80;;;2.05;;
48871;SDS011;36154;51.674;7.824;2022-12-18T14:00:58;5.38;;;1.98;;
48871;SDS011;36154;51.674;7.824;2022-12-18T14:03:25;6.70;;;1.83;;
48871;SDS011;36154;51.674;7.824;2022-12-18T14:05:53;3.97;;;1.70;;
48871;SDS011;36154;51.674;7.824;2022-12-18T14:08:21;2.05;;;1.65;;
48871;SDS011;36154;51.674;7.824;2022-12-18T14:10:48;5.72;;;1.33;;
48871;SDS011;36154;51.674;7.824;2022-12-18T14:13:29;2.63;;;1.60;;
48871;SDS011;36154;51.674;7.824;2022-12-18T14:15:57;3.05;;;1.83;;
48871;SDS011;36154;51.674;7.824;2022-12-18T14:18:26;3.60;;;2.00;;
48871;SDS011;36154;51.674;7.824;2022-12-18T14:21:44;6.03;;;1.80;;
48871;SDS011;36154;51.674;7.824;2022-12-18T14:24:23;2.83;;;1.75;;
48871;SDS011;36154;51.674;7.824;2022-12-18T14:26:50;5.10;;;1.77;;
48871;SDS011;36154;51.674;7.824;2022-12-18T14:31:46;7.68;;;6.68;;
48871;SDS011;36154;51.674;7.824;2022-12-18T14:34:29;12.10;;;6.20;;
48871;SDS011;36154;51.674;7.824;2022-12-18T14:36:54;5.18;;;4.57;;
48871;SDS011;36154;51.674;7.824;2022-12-18T14:39:21;4.40;;;3.90;;
48871;SDS011;36154;51.674;7.824;2022-12-18T14:41:48;8.60;;;3.95;;
48871;SDS011;36154;51.674;7.824;2022-12-18T14:44:13;6.35;;;3.50;;
48871;SDS011;36154;51.674;7.824;2022-12-18T14:46:39;5.75;;;3.13;;
48871;SDS011;36154;51.674;7.824;2022-12-18T14:51:48;3.53;;;2.97;;
48871;SDS011;36154;51.674;7.824;2022-12-18T14:54:17;4.65;;;2.97;;
48871;SDS011;36154;51.674;7.824;2022-12-18T14:56:45;3.30;;;2.78;;
48871;SDS011;36154;51.674;7.824;2022-12-18T14:59:14;3.97;;;2.78;;
48871;SDS011;36154;51.674;7.824;2022-12-18T15:04:29;4.65;;;2.53;;
48871;SDS011;36154;51.674;7.824;2022-12-18T15:07:40;3.05;;;2.55;;
48871;SDS011;36154;51.674;7.824;2022-12-18T15:12:36;2.80;;;2.60;;
48871;SDS011;36154;51.674;7.824;2022-12-18T15:15:02;4.60;;;3.03;;
48871;SDS011;36154;51.674;7.824;2022-12-18T15:17:28;2.25;;;2.00;;
48871;SDS011;36154;51.674;7.824;2022-12-18T15:20:01;2.97;;;1.95;;
48871;SDS011;36154;51.674;7.824;2022-12-18T15:22:34;2.45;;;2.25;;
48871;SDS011;36154;51.674;7.824;2022-12-18T15:25:03;2.60;;;2.40;;
48871;SDS011;36154;51.674;7.824;2022-12-18T15:27:49;3.28;;;2.60;;
48871;SDS011;36154;51.674;7.824;2022-12-18T15:32:39;7.47;;;2.83;;
48871;SDS011;36154;51.674;7.824;2022-12-18T15:37:33;3.45;;;2.72;;
48871;SDS011;36154;51.674;7.824;2022-12-18T15:39:58;4.75;;;2.92;;
48871;SDS011;36154;51.674;7.824;2022-12-18T15:42:24;5.10;;;2.75;;
48871;SDS011;36154;51.674;7.824;2022-12-18T15:47:36;3.00;;;2.80;;
48871;SDS011;36154;51.674;7.824;2022-12-18T15:50:01;4.82;;;3.08;;
48871;SDS011;36154;51.674;7.824;2022-12-18T15:52:27;3.45;;;2.90;;
48871;SDS011;36154;51.674;7.824;2022-12-18T15:54:53;2.97;;;2.72;;
48871;SDS011;36154;51.674;7.824;2022-12-18T15:57:37;4.05;;;2.40;;
48871;SDS011;36154;51.674;7.824;2022-12-18T16:00:02;6.00;;;2.60;;
48871;SDS011;36154;51.674;7.824;2022-12-18T16:02:28;2.78;;;2.50;;
48871;SDS011;36154;51.674;7.824;2022-12-18T16:04:53;3.55;;;2.92;;
48871;SDS011;36154;51.674;7.824;2022-12-18T16:07:19;5.15;;;2.80;;
48871;SDS011;36154;51.674;7.824;2022-12-18T16:09:46;3.28;;;2.60;;
48871;SDS011;36154;51.674;7.824;2022-12-18T16:12:15;2.83;;;2.38;;
48871;SDS011;36154;51.674;7.824;2022-12-18T16:14:43;2.60;;;2.40;;
48871;SDS011;36154;51.674;7.824;2022-12-18T16:17:09;3.75;;;2.38;;
48871;SDS011;36154;51.674;7.824;2022-12-18T16:19:36;2.50;;;2.22;;
48871;SDS011;36154;51.674;7.824;2022-12-18T16:22:01;2.75;;;2.20;;
48871;SDS011;36154;51.674;7.824;2022-12-18T16:24:28;2.97;;;2.10;;
48871;SDS011;36154;51.674;7.824;2022-12-18T16:26:56;2.50;;;2.30;;
48871;SDS011;36154;51.674;7.824;2022-12-18T16:29:24;2.15;;;1.90;;
48871;SDS011;36154;51.674;7.824;2022-12-18T16:31:55;2.13;;;1.98;;
48871;SDS011;36154;51.674;7.824;2022-12-18T16:34:29;2.45;;;1.90;;
48871;SDS011;36154;51.674;7.824;2022-12-18T16:36:57;2.38;;;2.20;;
48871;SDS011;36154;51.674;7.824;2022-12-18T16:39:33;2.38;;;2.17;;
48871;SDS011;36154;51.674;7.824;2022-12-18T16:42:00;2.53;;;2.30;;
48871;SDS011;36154;51.674;7.824;2022-12-18T16:44:26;1.95;;;1.75;;
48871;SDS011;36154;51.674;7.824;2022-12-18T16:46:51;2.10;;;2.00;;
48871;SDS011;36154;51.674;7.824;2022-12-18T16:49:17;1.80;;;1.70;;
48871;SDS011;36154;51.674;7.824;2022-12-18T16:51:43;2.00;;;1.90;;
48871;SDS011;36154;51.674;7.824;2022-12-18T16:54:11;2.10;;;2.00;;
48871;SDS011;36154;51.674;7.824;2022-12-18T16:56:36;1.50;;;1.40;;
48871;SDS011;36154;51.674;7.824;2022-12-18T16:59:02;2.20;;;2.10;;
48871;SDS011;36154;51.674;7.824;2022-12-18T17:01:28;1.67;;;1.58;;